createdAt,value
2024-04-24T00:00:30.297Z,9.70
2024-04-24T00:05:24.034Z,9.43
2024-04-24T00:07:50.931Z,6.28
2024-04-24T00:10:17.553Z,9.75
2024-04-24T00:12:44.190Z,6.47
2024-04-24T00:17:37.516Z,9.10
2024-04-24T00:20:04.491Z,7.03
2024-04-24T00:22:33.936Z,8.35
2024-04-24T00:25:00.739Z,9.52
2024-04-24T00:27:28.188Z,7.78
2024-04-24T00:29:54.785Z,8.27
2024-04-24T00:32:21.507Z,9.05
2024-04-24T00:37:14.674Z,9.02
2024-04-24T00:39:41.311Z,7.97
2024-04-24T00:44:44.108Z,6.78
2024-04-24T00:47:10.887Z,10.32
2024-04-24T00:49:37.686Z,7.50
2024-04-24T00:52:04.410Z,6.40
2024-04-24T00:56:58.243Z,6.65
2024-04-24T00:59:24.996Z,9.10
2024-04-24T01:04:18.438Z,6.80
2024-04-24T01:06:47.654Z,7.55
2024-04-24T01:09:15.963Z,6.82
2024-04-24T01:14:09.682Z,6.28
2024-04-24T01:16:42.068Z,7.97
2024-04-24T01:19:40.341Z,7.43
2024-04-24T01:22:23.938Z,8.75
2024-04-24T01:25:03.968Z,6.63
2024-04-24T01:27:30.751Z,4.50
2024-04-24T01:29:57.477Z,10.10
2024-04-24T01:34:50.883Z,6.07
2024-04-24T01:37:17.605Z,9.32
2024-04-24T01:42:10.734Z,9.30
2024-04-24T01:44:37.398Z,5.43
2024-04-24T01:49:30.657Z,7.95
2024-04-24T01:51:57.276Z,6.47
2024-04-24T01:56:50.439Z,13.77
2024-04-24T01:59:17.108Z,6.50
2024-04-24T02:01:43.906Z,6.15
2024-04-24T02:06:37.310Z,5.82
2024-04-24T02:11:32.876Z,7.03
2024-04-24T02:14:01.199Z,7.07
2024-04-24T02:16:28.247Z,10.05
2024-04-24T02:18:54.912Z,13.48
2024-04-24T02:23:48.270Z,7.00
2024-04-24T02:28:41.534Z,7.82
2024-04-24T02:46:49.038Z,9.65
2024-04-24T02:51:42.259Z,7.82
2024-04-24T02:54:08.868Z,10.95
2024-04-24T02:59:04.907Z,8.05
2024-04-24T03:01:31.475Z,13.48
2024-04-24T03:03:58.202Z,10.25
2024-04-24T03:06:24.823Z,13.43
2024-04-24T03:08:51.446Z,14.98
2024-04-24T03:11:18.300Z,8.70
2024-04-24T03:13:44.948Z,10.75
2024-04-24T03:16:11.570Z,7.03
2024-04-24T03:21:05.345Z,8.05
2024-04-24T03:23:31.937Z,6.65
2024-04-24T03:25:58.620Z,6.20
2024-04-24T03:30:51.788Z,5.78
2024-04-24T03:33:18.525Z,8.13
2024-04-24T03:35:45.187Z,5.80
2024-04-24T03:38:11.774Z,8.10
2024-04-24T03:43:05.323Z,8.10
2024-04-24T03:45:31.939Z,7.75
2024-04-24T03:47:58.593Z,7.70
2024-04-24T03:52:51.892Z,7.43
2024-04-24T03:57:45.039Z,7.15
2024-04-24T04:00:12.238Z,7.85
2024-04-24T04:02:39.025Z,5.22
2024-04-24T04:05:05.805Z,7.70
2024-04-24T04:09:59.028Z,9.48
2024-04-24T04:12:25.678Z,8.15
2024-04-24T04:17:18.922Z,6.13
2024-04-24T04:22:24.194Z,8.25
2024-04-24T04:24:50.793Z,8.82
2024-04-24T04:27:18.307Z,9.80
2024-04-24T04:29:44.881Z,13.07
2024-04-24T04:32:11.561Z,10.90
2024-04-24T04:37:04.707Z,7.15
2024-04-24T04:39:31.313Z,9.60
2024-04-24T04:42:01.332Z,7.53
2024-04-24T04:44:28.334Z,12.57
2024-04-24T04:46:55.149Z,10.13
2024-04-24T04:49:21.885Z,12.02
2024-04-24T04:54:15.149Z,7.07
2024-04-24T04:56:41.750Z,10.90
2024-04-24T05:01:35.840Z,9.27
2024-04-24T05:06:29.186Z,9.23
2024-04-24T05:11:22.449Z,7.97
2024-04-24T05:16:24.928Z,10.05
2024-04-24T05:21:20.652Z,9.18
2024-04-24T05:23:47.726Z,13.45
2024-04-24T05:26:33.181Z,9.18
2024-04-24T05:29:05.994Z,9.40
2024-04-24T05:31:32.655Z,8.48
2024-04-24T05:36:32.007Z,6.32
2024-04-24T05:38:58.846Z,8.38
2024-04-24T05:41:25.654Z,8.80
2024-04-24T05:43:54.148Z,8.52
2024-04-24T05:46:20.906Z,9.77
2024-04-24T05:51:45.271Z,8.57
2024-04-24T05:56:38.795Z,22.80
2024-04-24T06:01:32.042Z,10.88
2024-04-24T06:03:59.051Z,14.43
2024-04-24T06:06:28.772Z,11.73
2024-04-24T06:08:55.428Z,13.93
2024-04-24T06:13:49.036Z,9.02
2024-04-24T06:16:18.072Z,10.70
2024-04-24T06:19:06.579Z,14.77
2024-04-24T06:21:33.615Z,10.25
2024-04-24T06:24:00.418Z,12.55
2024-04-24T06:26:27.196Z,23.02
2024-04-24T06:31:30.204Z,8.85
2024-04-24T06:33:56.861Z,11.15
2024-04-24T06:38:50.076Z,7.63
2024-04-24T06:41:17.111Z,9.65
2024-04-24T06:43:44.297Z,9.57
2024-04-24T06:46:11.080Z,7.68
2024-04-24T06:51:05.513Z,8.80
2024-04-24T06:53:32.317Z,8.10
2024-04-24T06:56:03.958Z,8.25
2024-04-24T06:58:33.163Z,11.68
2024-04-24T07:00:59.991Z,12.43
2024-04-24T07:03:27.922Z,10.57
2024-04-24T07:05:55.199Z,12.35
2024-04-24T07:08:22.012Z,7.93
2024-04-24T07:10:49.062Z,7.20
2024-04-24T07:13:15.756Z,10.68
2024-04-24T07:15:42.575Z,10.90
2024-04-24T07:18:09.324Z,9.65
2024-04-24T07:23:03.260Z,12.63
2024-04-24T07:25:29.952Z,9.88
2024-04-24T07:30:24.028Z,7.35
2024-04-24T07:32:50.824Z,8.80
2024-04-24T07:37:44.148Z,9.48
2024-04-24T07:42:38.250Z,13.02
2024-04-24T07:47:31.726Z,9.82
2024-04-24T07:49:58.573Z,7.55
2024-04-24T07:55:08.793Z,8.10
2024-04-24T07:57:35.593Z,8.00
2024-04-24T08:02:29.886Z,7.53
2024-04-24T08:04:56.857Z,6.30
2024-04-24T08:07:23.511Z,11.07
2024-04-24T08:09:50.303Z,14.40
2024-04-24T08:14:43.786Z,7.18
2024-04-24T08:17:10.409Z,9.65
2024-04-24T08:22:03.792Z,8.70
2024-04-24T08:24:30.446Z,6.13
2024-04-24T08:26:57.716Z,9.68
2024-04-24T08:29:25.347Z,11.05
2024-04-24T08:31:52.867Z,8.57
2024-04-24T08:34:19.777Z,7.65
2024-04-24T08:36:46.539Z,10.00
2024-04-24T08:41:45.760Z,7.63
2024-04-24T08:44:13.703Z,10.13
2024-04-24T08:46:41.088Z,9.25
2024-04-24T08:49:07.988Z,11.30
2024-04-24T08:51:37.975Z,9.18
2024-04-24T08:54:06.172Z,9.73
2024-04-24T08:56:38.555Z,12.15
2024-04-24T08:59:12.223Z,8.85
2024-04-24T09:01:41.242Z,5.90
2024-04-24T09:04:09.409Z,6.90
2024-04-24T09:06:38.338Z,6.57
2024-04-24T09:09:06.033Z,11.82
2024-04-24T09:11:33.557Z,16.52
2024-04-24T09:14:00.552Z,11.55
2024-04-24T09:16:27.664Z,22.25
2024-04-24T09:19:05.503Z,10.68
2024-04-24T09:21:33.157Z,9.80
2024-04-24T09:24:00.400Z,10.73
2024-04-24T09:26:27.963Z,8.18
2024-04-24T09:28:55.235Z,12.10
2024-04-24T09:31:23.622Z,12.23
2024-04-24T09:33:51.320Z,9.73
2024-04-24T09:36:18.086Z,9.63
2024-04-24T09:38:46.370Z,18.20
2024-04-24T09:41:13.166Z,12.32
2024-04-24T09:46:06.543Z,11.23
2024-04-24T09:48:33.240Z,13.07
2024-04-24T09:53:26.966Z,16.05
2024-04-24T09:58:35.221Z,13.00
2024-04-24T10:01:08.257Z,16.45
2024-04-24T10:03:36.824Z,22.55
2024-04-24T10:06:06.558Z,14.48
2024-04-24T10:08:34.758Z,13.95
2024-04-24T10:11:08.927Z,13.23
2024-04-24T10:13:41.409Z,12.93
2024-04-24T10:16:08.643Z,12.98
2024-04-24T10:18:36.789Z,14.25
2024-04-24T10:21:10.416Z,17.08
2024-04-24T10:23:41.210Z,16.20
2024-04-24T10:26:09.887Z,14.48
2024-04-24T10:28:38.210Z,10.82
2024-04-24T10:31:04.892Z,11.20
2024-04-24T10:33:32.472Z,19.50
2024-04-24T10:36:01.273Z,17.95
2024-04-24T10:38:33.109Z,18.63
2024-04-24T10:41:00.017Z,16.90
2024-04-24T10:46:04.089Z,13.70
2024-04-24T10:49:00.127Z,18.33
2024-04-24T10:51:30.349Z,16.20
2024-04-24T10:53:59.877Z,13.57
2024-04-24T10:56:36.266Z,15.00
2024-04-24T10:59:06.592Z,12.57
2024-04-24T11:01:46.245Z,19.23
2024-04-24T11:04:17.922Z,18.05
2024-04-24T11:06:45.717Z,16.08
2024-04-24T11:09:12.530Z,13.35
2024-04-24T11:11:39.537Z,11.88
2024-04-24T11:14:41.423Z,12.15
2024-04-24T11:17:08.411Z,12.93
2024-04-24T11:19:35.158Z,11.75
2024-04-24T11:24:32.960Z,16.13
2024-04-24T11:27:00.618Z,15.77
2024-04-24T11:36:52.348Z,12.82
2024-04-24T11:41:51.573Z,16.63
2024-04-24T11:48:15.743Z,12.55
2024-04-24T11:50:42.613Z,11.27
2024-04-24T12:00:48.256Z,5.55
2024-04-24T12:06:16.964Z,8.45
2024-04-24T12:16:48.594Z,9.02
2024-04-24T12:22:56.727Z,12.13
2024-04-24T12:25:46.375Z,8.02
2024-04-24T12:28:15.641Z,11.52
2024-04-24T12:30:59.988Z,9.40
2024-04-24T12:33:27.309Z,9.52
2024-04-24T12:35:54.080Z,6.50
2024-04-24T12:41:05.224Z,5.70
2024-04-24T12:43:32.467Z,6.35
2024-04-24T12:45:59.374Z,8.98
2024-04-24T12:48:26.280Z,5.65
2024-04-24T12:55:21.466Z,8.98
2024-04-24T13:01:45.805Z,8.45
2024-04-24T13:14:38.403Z,6.97
2024-04-24T13:23:29.412Z,11.15
2024-04-24T13:26:36.685Z,7.35
2024-04-24T13:29:03.615Z,9.75
2024-04-24T13:31:50.213Z,8.15
2024-04-24T13:38:07.072Z,9.55
2024-04-24T13:43:29.657Z,12.45
2024-04-24T13:45:56.800Z,12.88
2024-04-24T13:48:23.674Z,7.85
2024-04-24T13:51:32.491Z,7.95
2024-04-24T13:57:42.882Z,11.55
2024-04-24T14:00:51.878Z,9.02
2024-04-24T14:09:35.079Z,12.05
2024-04-24T14:12:23.533Z,10.80
2024-04-24T14:19:06.431Z,12.38
2024-04-24T14:21:34.905Z,12.02
2024-04-24T14:24:02.281Z,12.95
2024-04-24T14:26:29.164Z,12.13
2024-04-24T14:28:59.865Z,12.18
2024-04-24T14:59:21.828Z,14.40
2024-04-24T15:04:55.643Z,11.55
2024-04-24T15:07:27.566Z,14.73
2024-04-24T15:10:07.722Z,10.15
2024-04-24T15:12:57.689Z,14.82
2024-04-24T15:15:28.125Z,12.18
2024-04-24T15:27:06.520Z,11.20
2024-04-24T15:30:12.043Z,10.18
2024-04-24T15:32:42.161Z,10.88
2024-04-24T15:35:16.245Z,14.25
2024-04-24T15:37:53.900Z,11.50
2024-04-24T15:40:30.068Z,13.10
2024-04-24T15:43:04.252Z,12.38
2024-04-24T15:48:24.318Z,15.07
2024-04-24T15:51:02.875Z,13.95
2024-04-24T15:53:52.877Z,13.27
2024-04-24T15:56:30.807Z,15.02
2024-04-24T16:01:50.508Z,18.10
2024-04-24T16:05:06.644Z,11.73
2024-04-24T16:07:33.618Z,10.68
2024-04-24T16:10:00.650Z,17.08
2024-04-24T16:12:36.415Z,15.02
2024-04-24T16:15:06.543Z,11.68
2024-04-24T16:17:34.565Z,11.65
2024-04-24T16:23:03.574Z,9.93
2024-04-24T16:25:51.452Z,8.40
2024-04-24T16:36:22.344Z,7.78
2024-04-24T16:39:35.312Z,9.50
2024-04-24T16:42:08.131Z,8.07
2024-04-24T16:45:23.696Z,9.27
2024-04-24T16:48:33.109Z,8.00
2024-04-24T16:51:10.880Z,8.63
2024-04-24T16:53:37.593Z,9.90
2024-04-24T16:59:09.899Z,10.55
2024-04-24T17:01:44.556Z,8.27
2024-04-24T17:04:56.493Z,10.25
2024-04-24T17:07:36.156Z,8.02
2024-04-24T17:14:44.342Z,9.00
2024-04-24T17:17:29.954Z,7.50
2024-04-24T17:19:56.743Z,7.55
2024-04-24T17:25:15.851Z,9.57
2024-04-24T17:27:45.120Z,7.07
2024-04-24T17:30:19.075Z,9.25
2024-04-24T17:32:49.221Z,8.20
2024-04-24T17:35:25.505Z,11.38
2024-04-24T17:37:52.231Z,7.03
2024-04-24T17:42:46.136Z,6.45
2024-04-24T17:45:13.100Z,8.48
2024-04-24T18:21:41.392Z,15.75
2024-04-24T18:24:37.270Z,14.70
2024-04-24T18:27:59.595Z,17.00
2024-04-24T18:34:29.793Z,15.10
2024-04-24T18:37:05.436Z,13.45
2024-04-24T18:42:50.679Z,14.20
2024-04-24T18:45:33.948Z,15.23
2024-04-24T18:48:00.871Z,14.15
2024-04-24T18:50:34.997Z,15.18
2024-04-24T18:53:04.625Z,14.93
2024-04-24T18:55:31.479Z,15.02
2024-04-24T18:57:58.217Z,19.13
2024-04-24T19:02:51.747Z,15.02
2024-04-24T19:05:20.690Z,14.25
2024-04-24T19:07:47.522Z,15.07
2024-04-24T19:12:42.287Z,18.38
2024-04-24T19:17:36.450Z,12.77
2024-04-24T19:20:03.468Z,16.50
2024-04-24T19:22:30.828Z,13.98
2024-04-24T19:24:57.512Z,15.35
2024-04-24T19:30:06.596Z,20.88
2024-04-24T19:33:10.886Z,21.27
2024-04-24T19:35:38.000Z,15.07
2024-04-24T19:38:07.739Z,17.38
2024-04-24T19:41:28.468Z,16.05
2024-04-24T19:44:08.436Z,19.95
2024-04-24T19:53:22.238Z,19.02
2024-04-24T19:55:52.470Z,19.02
2024-04-24T20:01:25.848Z,16.58
2024-04-24T20:04:20.957Z,22.65
2024-04-24T20:07:00.233Z,23.55
2024-04-24T20:09:27.051Z,19.33
2024-04-24T20:12:03.231Z,20.05
2024-04-24T20:14:29.981Z,21.60
2024-04-24T20:19:26.597Z,22.88
2024-04-24T20:21:53.978Z,19.02
2024-04-24T20:24:20.745Z,25.65
2024-04-24T20:29:21.658Z,17.10
2024-04-24T20:31:50.441Z,19.55
2024-04-24T20:34:17.811Z,20.92
2024-04-24T20:36:44.442Z,19.52
2024-04-24T20:39:11.122Z,22.15
2024-04-24T20:44:09.848Z,20.38
2024-04-24T20:46:50.341Z,23.40
2024-04-24T20:49:17.074Z,20.73
2024-04-24T20:56:49.617Z,18.30
2024-04-24T20:59:16.564Z,18.67
2024-04-24T21:01:46.016Z,17.20
2024-04-24T21:04:17.307Z,22.20
2024-04-24T21:06:44.032Z,21.38
2024-04-24T21:11:48.072Z,17.95
2024-04-24T21:14:18.118Z,22.67
2024-04-24T21:16:44.873Z,22.00
2024-04-24T21:21:49.015Z,19.55
2024-04-24T21:24:16.845Z,20.05
2024-04-24T21:26:51.811Z,20.55
2024-04-24T21:29:24.992Z,24.73
2024-04-24T21:31:52.442Z,20.23
2024-04-24T21:34:19.163Z,21.50
2024-04-24T21:39:13.755Z,18.42
2024-04-24T21:41:42.924Z,20.73
2024-04-24T21:44:09.641Z,19.83
2024-04-24T21:49:03.063Z,17.60
2024-04-24T21:53:58.084Z,19.88
2024-04-24T21:56:25.132Z,24.02
2024-04-24T22:01:23.080Z,22.73
2024-04-24T22:03:50.305Z,20.92
2024-04-24T22:06:20.479Z,19.15
2024-04-24T22:08:48.485Z,20.83
2024-04-24T22:11:15.571Z,23.48
2024-04-24T22:13:42.246Z,20.13
2024-04-24T22:16:09.087Z,22.48
2024-04-24T22:18:36.487Z,23.52
2024-04-24T22:21:03.360Z,21.50
2024-04-24T22:23:30.230Z,26.20
2024-04-24T22:25:56.929Z,20.52
2024-04-24T22:30:50.179Z,22.35
2024-04-24T22:33:17.053Z,23.30
2024-04-24T22:35:43.811Z,25.88
2024-04-24T22:40:39.775Z,25.90
2024-04-24T22:43:09.079Z,27.85
2024-04-24T22:45:35.774Z,26.25
2024-04-24T22:51:26.292Z,24.23
2024-04-24T22:53:52.919Z,27.70
2024-04-24T22:56:19.644Z,26.45
2024-04-24T22:58:47.923Z,27.42
2024-04-24T23:01:15.208Z,22.52
2024-04-24T23:03:41.901Z,26.15
2024-04-24T23:08:35.159Z,28.02
2024-04-24T23:11:01.959Z,25.27
2024-04-24T23:13:28.610Z,26.70
2024-04-24T23:15:55.216Z,28.10
2024-04-24T23:18:21.994Z,26.45
2024-04-24T23:20:48.709Z,30.83
2024-04-24T23:25:42.546Z,26.00
2024-04-24T23:28:09.228Z,24.55
2024-04-24T23:33:02.447Z,28.67
2024-04-24T23:35:29.179Z,27.60
2024-04-24T23:40:22.445Z,31.25
2024-04-24T23:42:49.133Z,31.17
2024-04-24T23:47:44.357Z,28.20
2024-04-24T23:50:11.099Z,31.58
2024-04-24T23:55:04.493Z,29.38
2024-04-24T23:57:31.115Z,30.65
2024-04-24T23:59:57.729Z,29.13
